Blue Ridge Observed Data For Previous 48 Hours

Caption
Day and Hour Reservoir Elevation (behind dam)* Tailwater Elevation (below dam)* Average Hourly Discharge*
10/16/2018 2 AM EDT 1,674.40 1,541.03 270
10/16/2018 3 AM EDT 1,674.43 1,540.93 165
10/16/2018 4 AM EDT 1,674.45 1,540.92 149
10/16/2018 5 AM EDT 1,674.43 1,540.92 158
10/16/2018 6 AM EDT 1,674.42 1,540.93 223
10/16/2018 7 AM EDT 1,674.44 1,540.78 203
10/16/2018 8 AM EDT 1,674.43 1,540.77 145
10/16/2018 9 AM EDT 1,674.46 1,540.77 145
10/16/2018 10 AM EDT 1,674.46 1,540.74 149
10/16/2018 11 AM EDT 1,674.42 1,543.51 1,629
10/16/2018 12 PM EDT 1,674.38 1,543.60 1,686
10/16/2018 1 PM EDT 1,674.34 1,543.60 1,680
10/16/2018 2 PM EDT 1,674.29 1,543.61 1,684
10/16/2018 3 PM EDT 1,674.26 1,543.61 1,676
10/16/2018 4 PM EDT 1,674.24 1,543.60 1,680
10/16/2018 5 PM EDT 1,674.22 1,543.60 1,677
10/16/2018 6 PM EDT 1,674.18 1,543.60 1,678
10/16/2018 7 PM EDT 1,674.15 1,543.61 1,677
10/16/2018 8 PM EDT 1,674.07 1,543.60 1,674
10/16/2018 9 PM EDT 1,674.07 1,543.61 1,675
10/16/2018 10 PM EDT 1,674.10 1,540.89 260
10/16/2018 11 PM EDT 1,674.09 1,540.77 145
10/17/2018 12 AM EDT 1,674.08 1,540.77 145
10/17/2018 1 AM EDT 1,674.11 1,540.77 145
10/17/2018 2 AM EDT 1,674.12 1,540.77 145
10/17/2018 3 AM EDT 1,674.13 1,540.77 145
10/17/2018 4 AM EDT 1,674.14 1,540.77 145
10/17/2018 5 AM EDT 1,674.14 1,540.77 145
10/17/2018 6 AM EDT 1,674.15 1,540.77 145
10/17/2018 7 AM EDT 1,674.12 1,540.77 145
10/17/2018 8 AM EDT 1,674.16 1,540.77 145
10/17/2018 9 AM EDT 1,674.14 1,540.77 145
10/17/2018 10 AM EDT 1,674.15 1,540.77 145
10/17/2018 11 AM EDT 1,674.18 1,540.77 145
10/17/2018 12 PM EDT 1,674.16 1,540.77 145
10/17/2018 1 PM EDT 1,674.17 1,540.77 145
10/17/2018 2 PM EDT 1,674.16 1,540.77 145
10/17/2018 3 PM EDT 1,674.17 1,540.77 145
10/17/2018 4 PM EDT 1,674.19 1,540.77 145
10/17/2018 5 PM EDT 1,674.18 1,540.77 145
10/17/2018 6 PM EDT 1,674.20 1,540.77 145
10/17/2018 7 PM EDT 1,674.23 1,540.77 145
10/17/2018 8 PM EDT 1,674.25 1,540.77 145
10/17/2018 9 PM EDT 1,674.26 1,540.77 145
10/17/2018 10 PM EDT 1,674.24 1,540.77 145
10/17/2018 11 PM EDT 1,674.27 1,540.77 145
10/18/2018 12 AM EDT 1,674.27 1,540.77 145
10/18/2018 1 AM EDT 1,674.27 1,540.77 145
10/18/2018 2 AM EDT 1,674.28 1,540.77 145
10/18/2018 3 AM EDT 1,674.28 1,540.77 145
10/18/2018 4 AM EDT 1,674.29 1,540.77 145
10/18/2018 5 AM EDT 1,674.29 1,540.77 145
10/18/2018 6 AM EDT 1,674.31 1,540.77 145
10/18/2018 7 AM EDT 1,674.31 1,540.77 145
10/18/2018 8 AM EDT 1,674.31 1,540.77 145
10/18/2018 9 AM EDT 1,674.32 1,540.77 145
10/18/2018 10 AM EDT 1,674.32 1,540.77 145
10/18/2018 11 AM EDT 1,674.32 1,540.77 145
10/18/2018 12 PM EDT 1,674.32 1,540.77 145
10/18/2018 1 PM EDT 1,674.32 1,540.73 145
10/18/2018 2 PM EDT 1,674.27 1,543.51 1,571
10/18/2018 3 PM EDT 1,674.23 1,543.62 1,691
10/18/2018 4 PM EDT 1,674.17 1,543.62 1,689

Elevations are in feet above sea level. Discharges are in cubic feet per second and are reported at the end of the hour.